createdAt,value
2023-02-03T00:00:58.698Z,5.95
2023-02-03T00:03:26.160Z,10.45
2023-02-03T00:06:01.745Z,12.57
2023-02-03T00:08:29.656Z,32.45
2023-02-03T00:10:57.613Z,20.95
2023-02-03T00:13:26.843Z,15.75
2023-02-03T00:15:54.135Z,11.77
2023-02-03T00:18:22.646Z,11.00
2023-02-03T00:20:49.990Z,5.57
2023-02-03T00:23:17.575Z,5.25
2023-02-03T00:25:45.011Z,5.70
2023-02-03T00:28:13.963Z,4.63
2023-02-03T00:30:42.398Z,5.07
2023-02-03T00:33:09.951Z,4.68
2023-02-03T00:35:41.006Z,4.70
2023-02-03T00:38:08.372Z,4.45
2023-02-03T00:40:35.751Z,4.47
2023-02-03T00:43:04.374Z,4.97
2023-02-03T00:45:31.873Z,4.20
2023-02-03T00:47:59.379Z,4.60
2023-02-03T00:50:27.644Z,3.95
2023-02-03T00:52:55.111Z,4.60
2023-02-03T00:55:22.610Z,4.30
2023-02-03T00:57:50.088Z,4.40
2023-02-03T01:00:19.043Z,4.32
2023-02-03T01:02:47.218Z,4.32
2023-02-03T01:05:14.494Z,6.07
2023-02-03T01:07:41.968Z,4.78
2023-02-03T01:10:09.917Z,4.43
2023-02-03T01:12:37.308Z,4.13
2023-02-03T01:15:05.048Z,4.03
2023-02-03T01:17:32.378Z,4.57
2023-02-03T01:20:06.204Z,5.00
2023-02-03T01:22:33.361Z,5.00
2023-02-03T01:25:00.810Z,5.03
2023-02-03T01:27:27.893Z,4.60
2023-02-03T01:29:55.314Z,4.18
2023-02-03T01:32:25.003Z,5.13
2023-02-03T01:34:53.208Z,6.07
2023-02-03T01:37:20.785Z,5.82
2023-02-03T01:39:48.054Z,5.72
2023-02-03T01:42:16.782Z,5.07
2023-02-03T01:44:52.575Z,5.13
2023-02-03T01:47:29.557Z,5.50
2023-02-03T01:50:03.731Z,5.22
2023-02-03T01:52:32.629Z,4.93
2023-02-03T01:55:06.078Z,4.55
2023-02-03T01:57:51.752Z,5.28
2023-02-03T02:00:19.400Z,6.22
2023-02-03T02:02:49.488Z,4.72
2023-02-03T02:05:33.087Z,4.80
2023-02-03T02:10:30.865Z,4.93
2023-02-03T02:13:00.579Z,4.35
2023-02-03T02:15:53.754Z,4.55
2023-02-03T02:18:45.379Z,5.18
2023-02-03T02:21:50.366Z,5.20
2023-02-03T02:24:42.062Z,5.00
2023-02-03T02:27:41.709Z,4.93
2023-02-03T02:30:34.758Z,5.55
2023-02-03T02:33:12.801Z,5.10
2023-02-03T02:35:46.654Z,5.55
2023-02-03T02:38:44.296Z,5.82
2023-02-03T02:41:28.312Z,5.38
2023-02-03T02:44:01.757Z,5.75
2023-02-03T02:46:48.066Z,5.72
2023-02-03T02:50:00.816Z,5.95
2023-02-03T02:52:32.270Z,5.45
2023-02-03T02:55:10.880Z,6.72
2023-02-03T02:57:40.106Z,6.10
2023-02-03T03:00:08.580Z,5.90
2023-02-03T03:02:37.014Z,6.30
2023-02-03T03:05:09.387Z,6.55
2023-02-03T03:07:54.095Z,6.30
2023-02-03T03:10:30.677Z,6.97
2023-02-03T03:13:03.752Z,6.63
2023-02-03T03:15:33.834Z,6.57
2023-02-03T03:18:17.577Z,6.45
2023-02-03T03:20:48.560Z,6.30
2023-02-03T03:23:25.298Z,5.70
2023-02-03T03:26:10.215Z,6.68
2023-02-03T03:29:14.949Z,6.07
2023-02-03T03:31:43.649Z,6.68
2023-02-03T03:34:12.657Z,5.65
2023-02-03T03:36:55.175Z,6.30
2023-02-03T03:39:22.259Z,5.80
2023-02-03T03:42:04.153Z,6.00
2023-02-03T03:44:39.669Z,5.97
2023-02-03T03:47:42.506Z,6.25
2023-02-03T03:50:15.790Z,6.45
2023-02-03T03:55:17.126Z,6.47
2023-02-03T03:58:08.056Z,6.15
2023-02-03T04:00:39.383Z,6.40
2023-02-03T04:03:21.102Z,7.13
2023-02-03T04:05:54.732Z,6.43
2023-02-03T04:08:22.151Z,6.80
2023-02-03T04:10:49.539Z,6.15
2023-02-03T04:13:20.740Z,6.90
2023-02-03T04:15:48.277Z,6.13
2023-02-03T04:18:16.912Z,6.47
2023-02-03T04:20:44.354Z,5.72
2023-02-03T04:23:12.715Z,5.75
2023-02-03T04:25:40.942Z,5.20
2023-02-03T04:28:08.462Z,6.07
2023-02-03T04:30:36.028Z,5.07
2023-02-03T04:33:03.485Z,5.63
2023-02-03T04:35:31.740Z,5.40
2023-02-03T04:37:59.281Z,5.18
2023-02-03T04:40:27.008Z,5.88
2023-02-03T04:42:54.652Z,5.60
2023-02-03T04:45:23.097Z,5.18
2023-02-03T04:47:54.441Z,5.38
2023-02-03T04:50:23.160Z,5.47
2023-02-03T04:52:50.583Z,5.82
2023-02-03T04:55:18.062Z,5.15
2023-02-03T04:57:45.453Z,5.15
2023-02-03T05:00:13.575Z,4.88
2023-02-03T05:02:40.945Z,4.18
2023-02-03T05:05:08.592Z,4.28
2023-02-03T05:07:35.918Z,4.25
2023-02-03T05:10:03.407Z,4.40
2023-02-03T05:12:31.884Z,4.90
2023-02-03T05:15:01.322Z,4.40
2023-02-03T05:17:28.795Z,4.07
2023-02-03T05:19:56.220Z,3.72
2023-02-03T05:22:23.747Z,4.00
2023-02-03T05:24:51.105Z,4.20
2023-02-03T05:27:18.115Z,4.32
2023-02-03T05:29:46.555Z,3.63
2023-02-03T05:32:14.067Z,3.90
2023-02-03T05:34:42.538Z,3.53
2023-02-03T05:37:10.205Z,3.70
2023-02-03T05:39:37.518Z,3.70
2023-02-03T05:42:05.943Z,3.42
2023-02-03T05:44:33.316Z,3.33
2023-02-03T05:47:00.885Z,3.95
2023-02-03T05:49:29.299Z,3.63
2023-02-03T05:51:57.257Z,3.80
2023-02-03T05:54:24.773Z,3.47
2023-02-03T05:56:52.280Z,3.78
2023-02-03T05:59:20.789Z,4.43
2023-02-03T06:01:49.173Z,3.58
2023-02-03T06:04:16.724Z,3.60
2023-02-03T06:06:44.005Z,3.22
2023-02-03T06:09:11.608Z,3.88
2023-02-03T06:11:38.931Z,3.75
2023-02-03T06:14:06.657Z,3.42
2023-02-03T06:16:34.956Z,3.72
2023-02-03T06:19:02.393Z,3.55
2023-02-03T06:21:30.041Z,3.65
2023-02-03T06:23:57.304Z,4.38
2023-02-03T06:26:25.719Z,4.20
2023-02-03T06:28:53.218Z,4.07
2023-02-03T06:31:21.118Z,4.00
2023-02-03T06:33:48.632Z,4.07
2023-02-03T06:36:16.205Z,4.20
2023-02-03T06:38:43.872Z,3.67
2023-02-03T06:41:11.003Z,3.75
2023-02-03T06:43:38.521Z,4.30
2023-02-03T06:46:05.962Z,4.20
2023-02-03T06:48:34.626Z,3.90
2023-02-03T06:51:02.136Z,4.13
2023-02-03T06:53:29.357Z,4.22
2023-02-03T06:55:56.800Z,3.78
2023-02-03T06:58:24.271Z,4.30
2023-02-03T07:00:51.757Z,4.55
2023-02-03T07:03:19.373Z,4.53
2023-02-03T07:05:46.633Z,4.45
2023-02-03T07:08:14.181Z,5.00
2023-02-03T07:10:42.181Z,4.70
2023-02-03T07:13:09.643Z,5.00
2023-02-03T07:15:39.052Z,4.78
2023-02-03T07:18:06.435Z,5.55
2023-02-03T07:20:33.975Z,5.28
2023-02-03T07:23:03.536Z,5.40
2023-02-03T07:25:32.965Z,5.35
2023-02-03T07:28:01.552Z,5.88
2023-02-03T07:30:29.110Z,5.88
2023-02-03T07:32:56.870Z,6.32
2023-02-03T07:35:24.294Z,6.93
2023-02-03T07:37:53.985Z,6.60
2023-02-03T07:40:23.571Z,7.13
2023-02-03T07:42:50.984Z,7.03
2023-02-03T07:45:19.545Z,8.07
2023-02-03T07:47:46.975Z,6.40
2023-02-03T07:50:14.380Z,6.95
2023-02-03T07:52:54.663Z,7.20
2023-02-03T07:55:23.232Z,7.70
2023-02-03T07:57:53.904Z,7.85
2023-02-03T08:00:22.460Z,7.63
2023-02-03T08:02:51.084Z,8.32
2023-02-03T08:05:19.048Z,8.30
2023-02-03T08:07:47.593Z,8.93
2023-02-03T08:10:20.735Z,8.27
2023-02-03T08:12:48.380Z,8.45
2023-02-03T08:15:17.522Z,8.07
2023-02-03T08:17:46.569Z,8.80
2023-02-03T08:20:14.086Z,10.07
2023-02-03T08:22:41.099Z,12.10
2023-02-03T08:25:08.837Z,9.82
2023-02-03T08:27:38.965Z,12.60
2023-02-03T08:30:08.139Z,13.55
2023-02-03T08:32:35.532Z,6.90
2023-02-03T08:37:48.782Z,6.78
2023-02-03T08:40:16.517Z,7.25
2023-02-03T08:42:44.795Z,9.35
2023-02-03T08:45:12.365Z,8.88
2023-02-03T08:47:39.729Z,11.07
2023-02-03T08:50:09.135Z,12.02
2023-02-03T08:52:36.814Z,13.82
2023-02-03T08:55:04.376Z,10.40
2023-02-03T08:57:36.786Z,10.00
2023-02-03T09:00:06.794Z,11.17
2023-02-03T09:02:34.177Z,12.25
2023-02-03T09:05:01.678Z,12.63
2023-02-03T09:07:29.159Z,9.32
2023-02-03T09:09:56.425Z,11.27
2023-02-03T09:12:24.329Z,11.05
2023-02-03T09:14:53.720Z,11.63
2023-02-03T09:17:21.037Z,13.40
2023-02-03T09:19:48.330Z,8.43
2023-02-03T09:22:15.955Z,13.50
2023-02-03T09:24:43.582Z,15.55
2023-02-03T09:27:10.903Z,21.73
2023-02-03T09:29:40.307Z,15.75
2023-02-03T09:32:10.530Z,11.55
2023-02-03T09:34:40.053Z,16.02
2023-02-03T09:37:08.515Z,17.50
2023-02-03T09:39:36.261Z,16.20
2023-02-03T09:42:09.850Z,15.38
2023-02-03T09:44:41.995Z,12.68
2023-02-03T09:47:41.822Z,13.75
2023-02-03T09:50:30.765Z,13.40
2023-02-03T09:53:04.658Z,14.38
2023-02-03T09:55:43.533Z,14.10
2023-02-03T09:58:16.170Z,15.93
2023-02-03T10:00:44.930Z,12.77
2023-02-03T10:03:30.244Z,14.13
2023-02-03T10:06:06.340Z,13.07
2023-02-03T10:09:17.385Z,11.88
2023-02-03T10:12:01.706Z,13.93
2023-02-03T10:14:39.255Z,11.05
2023-02-03T10:17:33.087Z,9.90
2023-02-03T10:22:51.130Z,10.90
2023-02-03T10:25:25.143Z,10.25
2023-02-03T10:27:59.137Z,9.43
2023-02-03T10:30:29.198Z,9.38
2023-02-03T10:33:25.308Z,7.40
2023-02-03T10:35:56.940Z,10.52
2023-02-03T10:38:43.121Z,7.68
2023-02-03T10:41:10.663Z,8.65
2023-02-03T10:43:53.156Z,9.32
2023-02-03T10:46:36.522Z,8.02
2023-02-03T10:49:04.209Z,7.45
2023-02-03T10:51:39.084Z,6.35
2023-02-03T10:54:28.091Z,7.35
2023-02-03T10:56:58.234Z,7.57
2023-02-03T10:59:30.773Z,7.20
2023-02-03T11:01:59.285Z,7.37
2023-02-03T11:04:30.931Z,7.65
2023-02-03T11:07:06.603Z,8.27
2023-02-03T11:09:39.440Z,7.22
2023-02-03T11:12:27.035Z,7.43
2023-02-03T11:15:06.373Z,7.28
2023-02-03T11:17:37.223Z,8.70
2023-02-03T11:20:15.875Z,8.00
2023-02-03T11:22:51.098Z,8.50
2023-02-03T11:25:32.639Z,8.10
2023-02-03T11:28:07.321Z,7.95
2023-02-03T11:30:35.865Z,7.93
2023-02-03T11:33:04.086Z,8.32
2023-02-03T11:35:40.356Z,7.50
2023-02-03T11:38:30.328Z,8.13
2023-02-03T11:41:01.630Z,8.10
2023-02-03T11:43:30.273Z,7.03
2023-02-03T11:46:08.099Z,7.60
2023-02-03T11:48:46.153Z,7.13
2023-02-03T11:51:37.346Z,7.88
2023-02-03T11:54:42.239Z,7.28
2023-02-03T11:57:21.857Z,8.40
2023-02-03T12:00:05.439Z,8.18
2023-02-03T12:05:26.968Z,8.07
2023-02-03T12:08:19.775Z,5.82
2023-02-03T12:11:17.382Z,5.72
2023-02-03T12:14:13.817Z,6.20
2023-02-03T12:16:56.926Z,3.85
2023-02-03T12:19:36.597Z,3.67
2023-02-03T12:22:22.408Z,3.00
2023-02-03T12:25:27.868Z,3.40
2023-02-03T12:28:10.627Z,2.85
2023-02-03T12:33:38.700Z,4.55
2023-02-03T12:36:22.683Z,5.07
2023-02-03T12:38:55.071Z,2.20
2023-02-03T12:41:29.225Z,2.92
2023-02-03T12:44:05.978Z,7.07
2023-02-03T12:46:41.460Z,2.40
2023-02-03T12:49:33.765Z,2.65
2023-02-03T12:52:51.123Z,2.33
2023-02-03T12:55:27.296Z,2.67
2023-02-03T12:58:10.451Z,2.90
2023-02-03T13:00:46.713Z,2.67
2023-02-03T13:03:21.315Z,2.60
2023-02-03T13:06:13.458Z,2.45
2023-02-03T13:09:17.861Z,5.50
2023-02-03T13:11:53.149Z,5.50
2023-02-03T13:14:47.662Z,2.85
2023-02-03T13:17:46.683Z,2.33
2023-02-03T13:20:21.199Z,2.25
2023-02-03T13:22:48.665Z,2.90
2023-02-03T13:25:27.573Z,2.38
2023-02-03T13:28:08.420Z,2.40
2023-02-03T13:31:13.748Z,2.30
2023-02-03T13:34:07.506Z,2.25
2023-02-03T13:36:35.100Z,2.17
2023-02-03T13:39:20.908Z,2.33
2023-02-03T13:41:53.560Z,2.50
2023-02-03T13:44:29.535Z,1.90
2023-02-03T13:46:59.612Z,2.40
2023-02-03T13:49:34.603Z,2.03
2023-02-03T13:52:02.454Z,2.38
2023-02-03T13:54:38.830Z,1.90
2023-02-03T13:57:20.189Z,2.90
2023-02-03T13:59:48.746Z,4.85
2023-02-03T14:02:22.339Z,1.77
2023-02-03T14:04:54.081Z,2.08
2023-02-03T14:07:36.961Z,2.38
2023-02-03T14:10:14.359Z,2.95
2023-02-03T14:12:51.108Z,4.03
2023-02-03T14:15:33.803Z,2.72
2023-02-03T14:18:37.835Z,3.20
2023-02-03T14:21:18.724Z,2.42
2023-02-03T14:23:54.949Z,2.65
2023-02-03T14:26:30.988Z,1.90
2023-02-03T14:28:58.974Z,2.00
2023-02-03T14:31:28.613Z,2.03
2023-02-03T14:34:13.421Z,1.58
2023-02-03T14:36:44.860Z,3.33
2023-02-03T14:39:18.322Z,2.00
2023-02-03T14:44:23.738Z,1.80
2023-02-03T14:47:09.599Z,1.35
2023-02-03T14:49:51.851Z,1.45
2023-02-03T14:52:39.462Z,3.00
2023-02-03T14:55:21.280Z,2.88
2023-02-03T14:58:02.131Z,3.85
2023-02-03T15:00:34.460Z,1.63
2023-02-03T15:03:11.784Z,2.17
2023-02-03T15:05:47.941Z,2.55
2023-02-03T15:08:47.770Z,3.67
2023-02-03T15:11:31.760Z,1.80
2023-02-03T15:14:20.795Z,2.30
2023-02-03T15:16:54.673Z,1.88
2023-02-03T15:19:25.984Z,2.08
2023-02-03T15:21:54.644Z,2.08
2023-02-03T15:24:24.225Z,2.40
2023-02-03T15:26:56.699Z,2.30
2023-02-03T15:29:36.774Z,2.38
2023-02-03T15:32:12.870Z,2.33
2023-02-03T15:34:45.623Z,3.55
2023-02-03T15:37:21.753Z,3.40
2023-02-03T15:40:08.757Z,2.97
2023-02-03T15:43:14.704Z,3.63
2023-02-03T15:45:57.664Z,4.50
2023-02-03T15:48:41.825Z,9.23
2023-02-03T15:51:33.432Z,13.30
2023-02-03T15:54:41.546Z,3.65
2023-02-03T15:57:16.625Z,15.20
2023-02-03T15:59:53.459Z,6.45
2023-02-03T16:02:34.074Z,4.10
2023-02-03T16:05:21.844Z,12.55
2023-02-03T16:07:50.637Z,2.72
2023-02-03T16:10:34.289Z,6.47
2023-02-03T16:13:23.504Z,3.40
2023-02-03T16:16:08.782Z,6.00
2023-02-03T16:18:38.081Z,10.00
2023-02-03T16:21:06.630Z,7.30
2023-02-03T16:23:34.170Z,8.82
2023-02-03T16:26:15.022Z,11.25
2023-02-03T16:29:02.128Z,4.85
2023-02-03T16:31:47.758Z,4.60
2023-02-03T16:34:36.527Z,4.55
2023-02-03T16:37:39.574Z,4.20
2023-02-03T16:40:26.122Z,4.18
2023-02-03T16:43:12.442Z,4.32
2023-02-03T16:45:58.543Z,3.70
2023-02-03T16:48:44.653Z,4.35
2023-02-03T16:51:17.137Z,4.03
2023-02-03T16:53:50.643Z,3.75
2023-02-03T16:58:47.354Z,5.07
2023-02-03T17:01:15.355Z,5.43
2023-02-03T17:03:44.838Z,7.57
2023-02-03T17:06:13.830Z,3.80
2023-02-03T17:08:42.287Z,4.82
2023-02-03T17:11:15.797Z,5.32
2023-02-03T17:16:18.561Z,8.70
2023-02-03T17:18:47.298Z,6.57
2023-02-03T17:21:18.652Z,3.28
2023-02-03T17:23:48.763Z,6.00
2023-02-03T17:26:16.306Z,2.55
2023-02-03T17:28:45.579Z,4.10
2023-02-03T17:31:16.905Z,3.17
2023-02-03T17:33:45.297Z,2.80
2023-02-03T17:36:22.892Z,2.90
2023-02-03T17:55:31.543Z,6.07
2023-02-03T17:58:02.385Z,4.35
2023-02-03T18:00:30.149Z,5.40
2023-02-03T18:02:59.149Z,4.95
2023-02-03T18:05:30.873Z,5.22
2023-02-03T18:08:03.031Z,5.47
2023-02-03T18:10:37.493Z,10.65
2023-02-03T18:13:06.629Z,4.88
2023-02-03T18:15:34.293Z,7.05
2023-02-03T18:18:02.445Z,6.40
2023-02-03T18:20:30.834Z,8.45
2023-02-03T18:22:59.859Z,9.90
2023-02-03T18:25:31.162Z,9.25
2023-02-03T18:27:59.824Z,7.35
2023-02-03T18:30:28.691Z,6.05
2023-02-03T18:32:57.425Z,4.63
2023-02-03T18:35:25.605Z,4.78
2023-02-03T18:37:55.613Z,6.03
2023-02-03T18:40:30.369Z,4.72
2023-02-03T18:42:59.012Z,4.78
2023-02-03T18:45:28.384Z,6.93
2023-02-03T18:47:58.186Z,4.90
2023-02-03T18:50:26.449Z,4.53
2023-02-03T18:53:01.785Z,5.38
2023-02-03T18:55:30.996Z,4.82
2023-02-03T18:58:00.904Z,6.85
2023-02-03T19:00:38.809Z,5.45
2023-02-03T19:03:08.741Z,7.53
2023-02-03T19:05:40.727Z,5.80
2023-02-03T19:08:08.903Z,6.68
2023-02-03T19:10:38.119Z,18.90
2023-02-03T19:13:06.178Z,11.40
2023-02-03T19:15:34.526Z,12.07
2023-02-03T19:18:04.541Z,7.72
2023-02-03T19:20:32.916Z,5.70
2023-02-03T19:23:00.767Z,6.15
2023-02-03T19:25:33.097Z,6.90
2023-02-03T19:28:04.014Z,5.38
2023-02-03T19:30:35.213Z,9.10
2023-02-03T19:33:03.923Z,8.23
2023-02-03T19:35:33.606Z,11.00
2023-02-03T19:38:03.926Z,9.80
2023-02-03T19:40:32.798Z,7.97
2023-02-03T19:43:01.664Z,5.13
2023-02-03T19:45:30.039Z,9.20
2023-02-03T19:47:58.201Z,9.30
2023-02-03T19:50:30.007Z,4.50
2023-02-03T19:52:58.612Z,7.78
2023-02-03T19:55:31.664Z,5.95
2023-02-03T19:58:03.005Z,11.23
2023-02-03T20:00:31.059Z,8.18
2023-02-03T20:02:59.400Z,5.47
2023-02-03T20:05:29.929Z,7.20
2023-02-03T20:07:59.057Z,7.95
2023-02-03T20:10:27.489Z,7.03
2023-02-03T20:12:58.523Z,6.95
2023-02-03T20:15:31.013Z,5.38
2023-02-03T20:17:59.275Z,13.00
2023-02-03T20:20:27.786Z,7.05
2023-02-03T20:22:59.696Z,5.25
2023-02-03T20:25:27.622Z,6.30
2023-02-03T20:27:59.849Z,6.30
2023-02-03T20:30:30.033Z,6.07
2023-02-03T20:32:59.962Z,5.07
2023-02-03T20:35:31.189Z,4.07
2023-02-03T20:38:01.922Z,6.47
2023-02-03T20:40:36.237Z,5.20
2023-02-03T20:43:25.586Z,5.05
2023-02-03T20:45:54.666Z,4.85
2023-02-03T20:48:27.243Z,10.80
2023-02-03T20:50:56.074Z,10.93
2023-02-03T20:53:28.661Z,6.07
2023-02-03T20:56:10.742Z,6.30
2023-02-03T20:58:41.042Z,6.38
2023-02-03T21:01:18.413Z,4.95
2023-02-03T21:04:06.316Z,3.97
2023-02-03T21:06:36.259Z,4.97
2023-02-03T21:09:25.502Z,5.70
2023-02-03T21:11:53.529Z,5.05
2023-02-03T21:14:40.185Z,5.45
2023-02-03T21:17:26.762Z,4.15
2023-02-03T21:19:56.101Z,5.30
2023-02-03T21:22:27.460Z,4.18
2023-02-03T21:24:58.854Z,4.85
2023-02-03T21:27:34.778Z,3.42
2023-02-03T21:30:23.274Z,5.93
2023-02-03T21:32:51.067Z,2.97
2023-02-03T21:35:26.368Z,3.95
2023-02-03T21:38:02.333Z,2.25
2023-02-03T21:40:34.107Z,6.88
2023-02-03T21:43:04.069Z,2.92
2023-02-03T21:45:36.379Z,2.13
2023-02-03T21:48:35.439Z,2.08
2023-02-03T21:51:13.133Z,2.97
2023-02-03T21:53:41.921Z,1.73
2023-02-03T21:56:18.057Z,2.35
2023-02-03T21:58:47.925Z,2.55
2023-02-03T22:01:19.019Z,3.08
2023-02-03T22:03:52.236Z,2.10
2023-02-03T22:06:28.083Z,3.75
2023-02-03T22:08:59.135Z,2.53
2023-02-03T22:11:29.772Z,2.13
2023-02-03T22:13:57.700Z,2.15
2023-02-03T22:16:25.994Z,2.00
2023-02-03T22:18:53.714Z,2.00
2023-02-03T22:21:21.424Z,1.88
2023-02-03T22:23:49.648Z,3.35
2023-02-03T22:26:17.735Z,2.25
2023-02-03T22:28:46.790Z,2.15
2023-02-03T22:31:15.563Z,2.00
2023-02-03T22:33:43.549Z,1.88
2023-02-03T22:36:11.231Z,1.52
2023-02-03T22:38:41.758Z,1.58
2023-02-03T22:41:14.593Z,2.00
2023-02-03T22:43:43.189Z,2.05
2023-02-03T22:46:10.752Z,1.83
2023-02-03T22:48:38.171Z,1.40
2023-02-03T22:51:05.770Z,1.80
2023-02-03T22:53:33.241Z,1.65
2023-02-03T22:56:00.609Z,2.38
2023-02-03T22:58:27.931Z,1.70
2023-02-03T23:00:55.397Z,1.90
2023-02-03T23:03:23.006Z,1.92
2023-02-03T23:05:50.397Z,1.80
2023-02-03T23:08:17.804Z,2.17
2023-02-03T23:10:45.265Z,1.90
2023-02-03T23:13:12.733Z,1.92
2023-02-03T23:15:41.463Z,2.25
2023-02-03T23:18:08.746Z,1.80
2023-02-03T23:20:36.149Z,1.58
2023-02-03T23:23:03.829Z,2.00
2023-02-03T23:25:30.955Z,2.10
2023-02-03T23:27:58.701Z,1.60
2023-02-03T23:30:27.539Z,2.10
2023-02-03T23:33:02.115Z,2.40
2023-02-03T23:35:47.409Z,2.03
2023-02-03T23:38:21.128Z,1.70
2023-02-03T23:40:48.525Z,1.83
2023-02-03T23:43:16.118Z,1.70
2023-02-03T23:45:45.976Z,1.70
2023-02-03T23:48:13.757Z,1.70
2023-02-03T23:50:41.087Z,2.10
2023-02-03T23:53:14.458Z,1.60
2023-02-03T23:55:42.141Z,1.88
2023-02-03T23:58:11.521Z,1.42
